createdAt,value
2023-01-10T00:00:47.992Z,54.30
2023-01-10T00:05:52.694Z,54.30
2023-01-10T00:10:56.028Z,54.20
2023-01-10T00:15:59.684Z,54.20
2023-01-10T00:21:04.464Z,54.10
2023-01-10T00:26:07.907Z,53.90
2023-01-10T00:31:12.319Z,54.00
2023-01-10T00:36:17.128Z,54.00
2023-01-10T00:41:37.964Z,53.90
2023-01-10T00:46:41.334Z,53.90
2023-01-10T00:51:46.487Z,53.90
2023-01-10T00:56:49.762Z,53.80
2023-01-10T01:01:53.622Z,53.80
2023-01-10T01:07:00.064Z,53.90
2023-01-10T01:12:03.442Z,53.90
2023-01-10T01:17:07.227Z,54.10
2023-01-10T01:22:12.212Z,54.10
2023-01-10T01:27:15.558Z,54.10
2023-01-10T01:32:19.082Z,54.10
2023-01-10T01:37:24.123Z,54.10
2023-01-10T01:42:29.871Z,54.10
2023-01-10T01:47:33.481Z,54.20
2023-01-10T01:52:39.020Z,54.30
2023-01-10T01:57:42.341Z,54.20
2023-01-10T02:03:01.736Z,54.40
2023-01-10T02:08:07.389Z,54.50
2023-01-10T02:13:15.185Z,54.40
2023-01-10T02:18:19.159Z,54.40
2023-01-10T02:23:58.541Z,54.50
2023-01-10T02:29:30.910Z,54.40
2023-01-10T02:34:42.464Z,54.40
2023-01-10T02:39:53.650Z,54.50
2023-01-10T02:45:05.905Z,54.40
2023-01-10T02:50:31.940Z,54.30
2023-01-10T02:55:45.744Z,54.30
2023-01-10T03:00:57.865Z,54.30
2023-01-10T03:06:15.505Z,54.30
2023-01-10T03:11:40.005Z,54.20
2023-01-10T03:16:49.348Z,54.50
2023-01-10T03:21:57.434Z,54.30
2023-01-10T03:27:07.702Z,54.30
2023-01-10T03:32:14.167Z,54.30
2023-01-10T03:37:23.428Z,54.40
2023-01-10T03:42:56.879Z,54.40
2023-01-10T03:48:04.230Z,54.50
2023-01-10T03:53:09.090Z,54.50
2023-01-10T03:58:12.411Z,54.50
2023-01-10T04:03:16.237Z,54.50
2023-01-10T04:08:20.902Z,54.50
2023-01-10T04:13:24.530Z,54.60
2023-01-10T04:18:27.953Z,54.70
2023-01-10T04:23:32.630Z,55.30
2023-01-10T04:28:35.922Z,54.60
2023-01-10T04:33:40.999Z,54.70
2023-01-10T04:38:45.743Z,54.70
2023-01-10T04:43:49.834Z,55.50
2023-01-10T04:48:53.407Z,54.90
2023-01-10T04:53:58.159Z,54.90
2023-01-10T04:59:01.473Z,55.00
2023-01-10T05:04:05.255Z,55.00
2023-01-10T05:09:10.212Z,55.00
2023-01-10T05:14:13.652Z,55.00
2023-01-10T05:19:17.032Z,55.10
2023-01-10T05:24:22.509Z,55.10
2023-01-10T05:29:25.969Z,55.80
2023-01-10T05:34:29.683Z,55.20
2023-01-10T05:39:34.553Z,55.20
2023-01-10T05:44:37.842Z,55.30
2023-01-10T05:49:41.101Z,55.30
2023-01-10T05:54:46.354Z,55.40
2023-01-10T05:59:49.686Z,55.40
2023-01-10T06:04:55.223Z,55.40
2023-01-10T06:09:59.906Z,55.40
2023-01-10T06:15:03.923Z,55.60
2023-01-10T06:20:08.230Z,56.00
2023-01-10T06:25:13.897Z,56.20
2023-01-10T06:30:17.486Z,56.10
2023-01-10T06:35:20.843Z,55.90
2023-01-10T06:40:25.956Z,55.80
2023-01-10T06:45:29.695Z,55.80
2023-01-10T06:50:33.102Z,55.80
2023-01-10T06:55:37.899Z,55.80
2023-01-10T07:00:41.226Z,56.90
2023-01-10T07:05:44.793Z,56.50
2023-01-10T07:10:49.542Z,56.20
2023-01-10T07:15:52.833Z,56.90
2023-01-10T07:20:56.689Z,56.10
2023-01-10T07:26:05.099Z,56.00
2023-01-10T07:31:08.599Z,55.90
2023-01-10T07:36:12.051Z,55.90
2023-01-10T07:41:16.837Z,55.90
2023-01-10T07:46:20.305Z,55.90
2023-01-10T07:51:24.152Z,55.90
2023-01-10T07:56:30.611Z,55.90
2023-01-10T08:01:34.008Z,55.90
2023-01-10T08:06:37.837Z,55.80
2023-01-10T08:11:43.421Z,55.80
2023-01-10T08:16:46.792Z,55.90
2023-01-10T08:21:50.233Z,55.80
2023-01-10T08:26:54.980Z,55.80
2023-01-10T08:31:58.619Z,55.80
2023-01-10T08:37:01.929Z,55.80
2023-01-10T08:42:07.284Z,55.70
2023-01-10T08:47:10.602Z,55.70
2023-01-10T08:52:13.999Z,55.70
2023-01-10T08:57:19.110Z,55.80
2023-01-10T09:02:22.520Z,55.70
2023-01-10T09:07:25.902Z,55.70
2023-01-10T09:12:48.301Z,55.70
2023-01-10T09:17:54.124Z,55.70
2023-01-10T09:22:58.522Z,55.60
2023-01-10T09:28:05.110Z,55.60
2023-01-10T09:33:08.800Z,55.50
2023-01-10T09:38:16.144Z,55.40
2023-01-10T09:43:29.594Z,55.40
2023-01-10T09:48:41.175Z,55.20
2023-01-10T09:53:46.056Z,55.10
2023-01-10T09:58:50.975Z,55.20
2023-01-10T10:04:01.821Z,55.20
2023-01-10T10:09:05.342Z,55.10
2023-01-10T10:14:22.226Z,55.20
2023-01-10T10:19:34.619Z,55.00
2023-01-10T10:24:51.674Z,55.10
2023-01-10T10:30:16.602Z,55.10
2023-01-10T10:35:28.816Z,55.00
2023-01-10T10:40:38.780Z,55.00
2023-01-10T10:45:48.473Z,55.10
2023-01-10T10:51:05.503Z,54.90
2023-01-10T10:56:14.948Z,54.70
2023-01-10T11:01:21.408Z,54.80
2023-01-10T11:06:26.739Z,54.80
2023-01-10T11:11:34.038Z,54.90
2023-01-10T11:16:40.229Z,54.90
2023-01-10T11:21:48.873Z,54.60
2023-01-10T11:26:53.331Z,54.50
2023-01-10T11:31:58.892Z,54.50
2023-01-10T11:37:04.667Z,54.40
2023-01-10T11:42:30.567Z,54.30
2023-01-10T11:47:41.687Z,53.70
2023-01-10T11:52:50.246Z,54.00
2023-01-10T11:58:00.957Z,54.00
2023-01-10T12:03:21.643Z,53.70
2023-01-10T12:08:28.364Z,53.30
2023-01-10T12:13:43.839Z,53.70
2023-01-10T12:18:49.427Z,53.70
2023-01-10T12:23:54.516Z,53.50
2023-01-10T12:29:02.734Z,53.50
2023-01-10T12:34:15.955Z,53.30
2023-01-10T12:39:24.290Z,52.80
2023-01-10T12:44:33.125Z,52.80
2023-01-10T12:49:44.979Z,52.90
2023-01-10T12:54:49.319Z,52.80
2023-01-10T12:59:55.005Z,52.90
2023-01-10T13:05:04.260Z,52.90
2023-01-10T13:10:09.657Z,52.50
2023-01-10T13:15:21.364Z,52.60
2023-01-10T13:20:37.173Z,52.30
2023-01-10T13:25:40.593Z,52.10
2023-01-10T13:30:44.057Z,52.60
2023-01-10T13:35:52.865Z,52.50
2023-01-10T13:41:02.864Z,52.20
2023-01-10T13:46:39.185Z,51.80
2023-01-10T13:52:37.131Z,51.30
2023-01-10T13:57:55.058Z,51.40
2023-01-10T14:02:58.716Z,51.40
2023-01-10T14:08:03.901Z,52.00
2023-01-10T14:13:15.573Z,51.80
2023-01-10T14:18:22.757Z,51.80
2023-01-10T14:23:32.490Z,51.70
2023-01-10T14:28:36.628Z,51.50
2023-01-10T14:33:44.289Z,51.80
2023-01-10T14:38:51.332Z,51.70
2023-01-10T14:44:00.206Z,51.80
2023-01-10T14:49:03.621Z,51.80
2023-01-10T14:54:15.209Z,51.80
2023-01-10T14:59:19.968Z,51.30
2023-01-10T15:04:25.500Z,51.60
2023-01-10T15:09:32.009Z,51.50
2023-01-10T15:14:37.305Z,51.50
2023-01-10T15:19:41.702Z,51.70
2023-01-10T15:24:59.346Z,51.70
2023-01-10T15:30:03.114Z,51.30
2023-01-10T15:35:09.721Z,51.70
2023-01-10T15:40:24.961Z,51.90
2023-01-10T15:45:31.166Z,51.70
2023-01-10T15:50:38.867Z,51.90
2023-01-10T15:55:48.301Z,52.00
2023-01-10T16:00:54.851Z,52.10
2023-01-10T16:06:01.286Z,52.20
2023-01-10T16:11:08.728Z,52.20
2023-01-10T16:16:19.274Z,52.00
2023-01-10T16:21:22.746Z,51.90
2023-01-10T16:26:27.477Z,52.40
2023-01-10T16:31:30.851Z,52.20
2023-01-10T16:36:34.190Z,52.40
2023-01-10T16:41:56.314Z,52.30
2023-01-10T16:46:59.880Z,52.20
2023-01-10T16:52:03.864Z,52.30
2023-01-10T16:57:12.233Z,52.40
2023-01-10T17:02:19.658Z,52.20
2023-01-10T17:07:23.069Z,52.10
2023-01-10T17:12:32.574Z,52.20
2023-01-10T17:17:37.853Z,51.90
2023-01-10T17:22:44.131Z,52.20
2023-01-10T17:27:48.840Z,52.00
2023-01-10T17:32:52.180Z,51.80
2023-01-10T17:37:56.842Z,51.80
2023-01-10T17:43:01.804Z,51.70
2023-01-10T17:48:07.651Z,51.60
2023-01-10T17:53:11.717Z,51.50
2023-01-10T17:58:17.922Z,51.50
2023-01-10T18:03:21.402Z,51.20
2023-01-10T18:08:25.405Z,51.20
2023-01-10T18:13:32.102Z,51.20
2023-01-10T18:18:35.739Z,51.00
2023-01-10T18:23:39.200Z,51.00
2023-01-10T18:28:45.637Z,51.00
2023-01-10T18:33:49.720Z,50.60
2023-01-10T18:38:54.009Z,50.70
2023-01-10T18:43:59.572Z,50.60
2023-01-10T18:49:03.349Z,50.30
2023-01-10T18:54:07.570Z,50.40
2023-01-10T18:59:12.919Z,50.40
2023-01-10T19:04:17.625Z,50.10
2023-01-10T19:09:21.618Z,50.30
2023-01-10T19:14:29.853Z,50.20
2023-01-10T19:19:34.386Z,50.10
2023-01-10T19:24:40.129Z,50.20
2023-01-10T19:29:48.343Z,50.10
2023-01-10T19:34:53.638Z,50.10
2023-01-10T19:39:57.339Z,50.30
2023-01-10T19:45:06.201Z,50.40
2023-01-10T19:50:11.883Z,50.80
2023-01-10T19:55:15.922Z,50.60
2023-01-10T20:00:22.484Z,50.50
2023-01-10T20:05:26.211Z,50.20
2023-01-10T20:10:30.456Z,50.30
2023-01-10T20:15:36.129Z,50.10
2023-01-10T20:20:41.591Z,50.10
2023-01-10T20:25:45.404Z,50.20
2023-01-10T20:30:50.789Z,50.20
2023-01-10T20:35:59.633Z,50.10
2023-01-10T20:41:06.313Z,50.00
2023-01-10T20:46:13.457Z,50.10
2023-01-10T20:51:19.497Z,49.90
2023-01-10T20:56:25.027Z,50.10
2023-01-10T21:01:35.139Z,50.10
2023-01-10T21:06:39.367Z,50.10
2023-01-10T21:11:57.961Z,50.20
2023-01-10T21:17:07.434Z,50.10
2023-01-10T21:22:11.111Z,49.80
2023-01-10T21:27:14.811Z,49.90
2023-01-10T21:32:19.508Z,49.90
2023-01-10T21:37:22.878Z,49.70
2023-01-10T21:42:35.231Z,49.80
2023-01-10T21:47:41.020Z,49.70
2023-01-10T21:52:44.964Z,49.50
2023-01-10T21:57:48.313Z,49.70
2023-01-10T22:02:53.075Z,49.70
2023-01-10T22:07:57.112Z,49.60
2023-01-10T22:13:00.434Z,49.60
2023-01-10T22:18:05.399Z,49.60
2023-01-10T22:23:08.759Z,49.30
2023-01-10T22:28:12.059Z,49.30
2023-01-10T22:33:16.824Z,49.30
2023-01-10T22:38:20.150Z,49.20
2023-01-10T22:43:23.515Z,49.30
2023-01-10T22:48:28.452Z,49.30
2023-01-10T22:53:31.964Z,49.30
2023-01-10T22:58:35.505Z,49.30
2023-01-10T23:03:40.378Z,49.20
2023-01-10T23:08:45.466Z,49.00
2023-01-10T23:13:49.709Z,49.10
2023-01-10T23:18:54.401Z,49.10
2023-01-10T23:23:57.896Z,49.00
2023-01-10T23:29:01.216Z,49.00
2023-01-10T23:34:05.844Z,49.00
2023-01-10T23:39:09.390Z,48.90
2023-01-10T23:44:12.672Z,48.90
2023-01-10T23:49:17.314Z,48.80
2023-01-10T23:54:20.542Z,48.60
2023-01-10T23:59:24.181Z,48.70
